• Join FlightAware (Why Join?)
  • Login
  • US Flag 
Trick or treat! (Boo!!) 
09:02AM EDT


 

Airport Tracker/Info


-or-


 

Live Flight TrackerFlight Track Log ✈ UAL33 ✈ 27-May-2013 ✈ KORD - KIAH

Flight Track Log - Related Links

Times and Time Zones

All times are in EDT time to prevent confusion due to time zone crossing. See the UAL33 flight status page for this flight to view local times or setup timezone preferences in your user account.

Time Position Orientation Groundspeed Altitude Reporting Facility
EDT Latitude Longitude Course Direction KTS MPH feet Rate Location/Type
10:00PM 41.9690 -87.9180 272° West 22 25  Level FlightAware
10:01PM 41.9690 -87.9200 270° West 29 33 120 Level FlightAware
10:01PM 41.9700 -87.9210 323° Northwest 24 28 120 Level FlightAware
10:02PM 41.9700 -87.9220 270° West 25 29 120 Level FlightAware
10:02PM 41.9700 -87.9240 270° West 34 39 120 Level FlightAware
10:03PM 41.9700 -87.9280 270° West 19 22 120 Level FlightAware
10:03PM 41.9700 -87.9300 270° West 24 28 120 Level FlightAware
10:06PM 41.9000 -88.2079 270° West  Level FlightAware Approximate
10:07PM 41.8760 -88.3349 242° Southwest  Level FlightAware Approximate
10:08PM 41.8387 -88.4566 255° West  Level FlightAware Approximate
10:09PM 41.8112 -88.5836 254° West  Level FlightAware Approximate
10:10PM 41.7831 -88.7105 253° West  Level FlightAware Approximate
10:12PM 41.9690 -87.9300 90° East 10 12  Level FlightAware
10:13PM 41.9680 -87.8920 92° East 156 180 1,600 1,860 Climbing FlightAware
10:13PM 41.9600 -87.8790 130° Southeast 169 194 2,300 2,100 Climbing FlightAware
10:13PM 41.9510 -87.8740 158° South 191 220 2,600 2,100 Climbing FlightAware
10:14PM 41.9260 -87.8830 195° South 226 260 3,700 2,340 Climbing FlightAware
10:14PM 41.8970 -87.9120 217° Southwest 254 292 4,900 1,380 Climbing FlightAware
10:14PM 41.8700 -87.9390 217° Southwest 255 293 5,100 60 Climbing FlightAware
10:15PM 41.8460 -87.9630 217° Southwest 257 296 5,000 -120 Descending FlightAware
10:15PM 41.8220 -87.9980 227° Southwest 258 297 5,000 120 Level FlightAware
10:16PM 41.8180 -88.0210 257° West 263 303 5,100 1,740 Climbing FlightAware
10:16PM 41.8300 -88.0640 291° West 272 313 6,300 3,360 Climbing FlightAware
10:17PM 41.8490 -88.0930 311° West 271 312 8,000 4,140 Climbing FlightAware
10:17PM 41.8700 -88.1320 306° West 265 305 9,900 3,900 Climbing FlightAware
10:17PM 41.8730 -88.1550 280° West 264 304 10,800 3,180 Climbing FlightAware
10:18PM 41.8720 -88.2300 269° West 290 334 13,000 3,120 Climbing FlightAware
10:18PM 41.8700 -88.2800 267° West 301 346 14,600 3,300 Climbing FlightAware
10:19PM 41.8550 -88.3600 256° West 322 371 16,900 3,180 Climbing FlightAware
10:20PM 41.8370 -88.4410 253° West 335 386 19,100 3,060 Climbing FlightAware
10:21PM 41.8180 -88.5230 253° West 347 399 21,100 3,000 Climbing FlightAware
10:21PM 41.7990 -88.6110 254° West 353 406 23,300 2,820 Climbing FlightAware
10:22PM 41.7760 -88.7090 253° West 365 420 25,300 2,520 Climbing FlightAware
10:23PM 41.7560 -88.7980 253° West 378 435 26,900 2,280 Climbing FlightAware
10:23PM 41.7370 -88.8830 253° West 386 444 28,400 2,280 Climbing FlightAware
10:24PM 41.7100 -88.9830 250° West 391 450 30,100 2,100 Climbing FlightAware
10:25PM 41.6750 -89.0690 241° Southwest 401 461 31,400 1,860 Climbing FlightAware
10:25PM 41.6360 -89.1630 241° Southwest 402 463 32,700 1,740 Climbing FlightAware
10:26PM 41.5950 -89.2610 241° Southwest 401 461 34,000 1,260 Climbing FlightAware
10:27PM 41.5600 -89.3480 242° Southwest 403 464 34,500 720 Climbing FlightAware
10:28PM 41.5200 -89.4410 240° Southwest 408 470 35,000 300 Climbing FlightAware
10:28PM 41.4830 -89.5320 242° Southwest 417 480 35,000  Level FlightAware
10:29PM 41.4410 -89.6310 241° Southwest 440 506 35,000 120 Level FlightAware
10:30PM 41.4020 -89.7250 241° Southwest 445 512 35,200 1,020 Climbing FlightAware
10:30PM 41.3560 -89.8340 241° Southwest 440 506 36,500 1,560 Climbing FlightAware
10:31PM 41.3170 -89.9260 241° Southwest 435 501 37,500 1,320 Climbing FlightAware
10:32PM 41.2730 -90.0290 240° Southwest 434 499 38,400 1,200 Climbing FlightAware
10:32PM 41.2350 -90.1180 240° Southwest 427 491 39,200 1,140 Climbing FlightAware
10:33PM 41.1940 -90.2150 241° Southwest 424 488 40,000 540 Climbing FlightAware
10:34PM 41.1520 -90.3120 240° Southwest 425 489 40,000  Level FlightAware
10:35PM 41.1120 -90.4040 240° Southwest 423 487 40,000  Level FlightAware
10:35PM 41.0710 -90.5000 240° Southwest 420 483 40,000  Level FlightAware
10:36PM 41.0320 -90.5890 240° Southwest 419 482 40,000  Level FlightAware
10:37PM 40.9910 -90.6840 240° Southwest 420 483 40,000  Level FlightAware
10:37PM 40.9540 -90.7700 240° Southwest 420 483 40,000  Level FlightAware
10:38PM 40.9050 -90.8800 240° Southwest 421 484 40,000  Level FlightAware
10:39PM 40.8660 -90.9700 240° Southwest 420 483 40,000  Level FlightAware
10:39PM 40.8280 -91.0560 240° Southwest 419 482 40,000  Level FlightAware
10:40PM 40.7870 -91.1490 240° Southwest 419 482 40,000  Level FlightAware
10:41PM 40.7440 -91.2470 240° Southwest 418 481 40,000  Level FlightAware
10:42PM 40.7010 -91.3440 240° Southwest 415 478 40,000  Level FlightAware
10:42PM 40.6630 -91.4300 240° Southwest 405 466 40,000 -540 Level FlightAware
10:43PM 40.6220 -91.5220 240° Southwest 399 459 39,300 -1,320 Descending FlightAware
10:44PM 40.5840 -91.6050 239° Southwest 397 457 38,200 -1,500 Descending FlightAware
10:44PM 40.5440 -91.6960 240° Southwest 395 455 37,200 -1,500 Descending FlightAware
10:45PM 40.5050 -91.7820 239° Southwest 392 451 36,100 -1,560 Descending FlightAware
10:46PM 40.4680 -91.8630 239° Southwest 390 449 35,100 -1,500 Descending FlightAware
10:46PM 40.4350 -91.9360 239° Southwest 388 447 34,200 -1,200 Descending FlightAware
10:47PM 40.3780 -92.0640 240° Southwest 385 443 33,100 -1,200 Descending FlightAware
10:48PM 40.3410 -92.1440 239° Southwest 403 464 32,200 -840 Descending FlightAware
10:49PM 40.2960 -92.2420 239° Southwest 417 480 32,000 -180 Descending FlightAware
10:49PM 40.2580 -92.3250 239° Southwest 424 488 32,000  Level FlightAware
10:50PM 40.2170 -92.4140 239° Southwest 423 487 32,000  Level FlightAware
10:51PM 40.1760 -92.5040 239° Southwest 422 486 32,000  Level FlightAware
10:52PM 40.1200 -92.6050 234° Southwest 427 491 32,000  Level FlightAware
10:52PM 40.0660 -92.6640 220° Southwest 428 493 32,000  Level FlightAware
10:53PM 39.9930 -92.7410 219° Southwest 428 493 32,000  Level FlightAware
10:54PM 39.9300 -92.8070 219° Southwest 427 491 32,000  Level FlightAware
10:54PM 39.8680 -92.8720 219° Southwest 426 490 32,000  Level FlightAware
10:55PM 39.8030 -92.9400 219° Southwest 427 491 32,000  Level FlightAware
10:56PM 39.7360 -93.0100 219° Southwest 426 490 32,000  Level FlightAware
10:56PM 39.6730 -93.0740 218° Southwest 426 490 32,000  Level FlightAware
10:57PM 39.6120 -93.1370 219° Southwest 426 490 32,000  Level FlightAware
10:58PM 39.5510 -93.2010 219° Southwest 426 490 32,000  Level FlightAware
10:59PM 39.4770 -93.2770 218° Southwest 428 493 32,000  Level FlightAware
10:59PM 39.4150 -93.3410 219° Southwest 429 494 32,000  Level FlightAware
11:00PM 39.3440 -93.4130 218° Southwest 432 497 32,000  Level FlightAware
11:01PM 39.2830 -93.4760 219° Southwest 432 497 32,000  Level FlightAware
11:01PM 39.2130 -93.5460 218° Southwest 432 497 32,000  Level FlightAware
11:02PM 39.1510 -93.6090 218° Southwest 433 498 32,000  Level FlightAware
11:03PM 39.0820 -93.6800 219° Southwest 432 497 32,000  Level FlightAware
11:03PM 39.0200 -93.7440 219° Southwest 431 496 32,000  Level FlightAware
11:04PM 38.9510 -93.8140 218° Southwest 432 497 32,000  Level FlightAware
11:05PM 38.8830 -93.8830 218° Southwest 433 498 32,000  Level FlightAware
11:06PM 38.8150 -93.9520 218° Southwest 434 499 32,000  Level FlightAware
11:06PM 38.7550 -94.0120 218° Southwest 435 501 32,000  Level FlightAware
11:07PM 38.6870 -94.0800 218° Southwest 436 502 32,000  Level FlightAware
11:08PM 38.6210 -94.1460 218° Southwest 434 499 32,000  Level FlightAware
11:08PM 38.5490 -94.2160 217° Southwest 435 501 32,000  Level FlightAware
11:09PM 38.4860 -94.2790 218° Southwest 435 501 32,000  Level FlightAware
11:10PM 38.4190 -94.3440 217° Southwest 437 503 32,000  Level FlightAware
11:10PM 38.3550 -94.4070 218° Southwest 437 503 32,000  Level FlightAware
11:11PM 38.2970 -94.4640 218° Southwest 438 504 32,000  Level FlightAware
11:12PM 38.2240 -94.5200 211° Southwest 444 511 32,000  Level FlightAware
11:13PM 38.1390 -94.5740 207° Southwest 440 506 32,000  Level FlightAware
11:13PM 38.0660 -94.6210 207° Southwest 440 506 32,000  Level FlightAware
11:14PM 37.9870 -94.6720 207° Southwest 441 507 32,000  Level FlightAware
11:15PM 37.9140 -94.7190 207° Southwest 442 509 32,000  Level FlightAware
11:15PM 37.8320 -94.7710 207° Southwest 463 533 32,000  Level FlightAware
11:16PM 37.7560 -94.8190 207° Southwest 474 545 32,000  Level FlightAware
11:17PM 37.6760 -94.8700 207° Southwest 478 550 32,000  Level FlightAware
11:17PM 37.5880 -94.9260 207° Southwest 478 550 32,000  Level FlightAware
11:18PM 37.5080 -94.9760 206° Southwest 478 550 32,000  Level FlightAware
11:19PM 37.4220 -95.0310 207° Southwest 479 551 32,000  Level FlightAware
11:19PM 37.3430 -95.0800 206° Southwest 478 550 32,000  Level FlightAware
11:20PM 37.2540 -95.1360 207° Southwest 478 550 32,000  Level FlightAware
11:21PM 37.1730 -95.1870 207° Southwest 480 552 32,000  Level FlightAware
11:22PM 37.0860 -95.2410 206° Southwest 481 554 32,000  Level FlightAware
11:22PM 37.0150 -95.2850 206° Southwest 480 552 32,000  Level FlightAware
11:23PM 36.9160 -95.3470 207° Southwest 481 554 32,000  Level FlightAware
11:24PM 36.8630 -95.3800 206° Southwest 481 554 32,000  Level FlightAware
11:25PM 36.7270 -95.4640 206° Southwest 476 548 32,000  Level FlightAware
11:25PM 36.6510 -95.5100 206° Southwest 475 547 32,000  Level FlightAware
11:26PM 36.5620 -95.5650 206° Southwest 475 547 32,000  Level FlightAware
11:27PM 36.4740 -95.6190 206° Southwest 476 548 32,000  Level FlightAware
11:28PM 36.3730 -95.6810 206° Southwest 479 551 32,000  Level FlightAware
11:28PM 36.2860 -95.7340 206° Southwest 479 551 32,000  Level FlightAware
11:29PM 36.1760 -95.7970 205° Southwest 481 554 32,000  Level FlightAware
11:30PM 36.1130 -95.8320 204° Southwest 481 554 32,000  Level FlightAware
11:31PM 35.9870 -95.8620 191° South 485 558 32,000  Level FlightAware
11:31PM 35.9110 -95.8880 195° South 487 560 32,000  Level FlightAware
11:32PM 35.8170 -95.9190 195° South 487 560 32,000  Level FlightAware
11:33PM 35.7500 -95.9410 195° South 487 560 32,000  Level FlightAware
11:34PM 35.6610 -95.9710 195° South 487 560 32,000  Level FlightAware
11:34PM 35.5950 -95.9930 195° South 487 560 32,000  Level FlightAware
11:35PM 35.4370 -96.0530 197° South 490 564 32,000  Level FlightAware
11:36PM 35.3450 -96.0840 195° South 493 567 32,000  Level FlightAware
11:36PM 35.2550 -96.1150 196° South 491 565 32,000  Level FlightAware
11:37PM 35.1600 -96.1480 196° South 491 565 32,000  Level FlightAware
11:38PM 35.0730 -96.1780 196° South 489 563 32,000  Level FlightAware
11:38PM 34.9770 -96.2110 196° South 489 563 32,000  Level FlightAware
11:39PM 34.8900 -96.2400 195° South 487 560 32,000  Level FlightAware
11:40PM 34.8080 -96.2680 196° South 489 563 32,000  Level FlightAware
11:40PM 34.7050 -96.3030 196° South 490 564 32,000  Level FlightAware
11:41PM 34.6170 -96.3330 196° South 492 566 32,000  Level FlightAware
11:42PM 34.5200 -96.3660 196° South 493 567 32,000  Level FlightAware
11:43PM 34.4320 -96.3950 195° South 493 567 32,000  Level FlightAware
11:43PM 34.3310 -96.4290 196° South 493 567 32,000  Level FlightAware
11:44PM 34.2430 -96.4580 195° South 488 562 32,000  Level FlightAware
11:45PM 34.1480 -96.4900 196° South 486 559 32,000  Level FlightAware
11:45PM 34.0610 -96.5190 195° South 487 560 32,000  Level FlightAware
11:46PM 33.9640 -96.5520 196° South 487 560 32,000  Level FlightAware
11:47PM 33.8810 -96.5790 195° South 487 560 32,000  Level FlightAware
11:48PM 33.7850 -96.6110 195° South 488 562 32,000  Level FlightAware
11:48PM 33.6960 -96.6400 195° South 490 564 32,000  Level FlightAware
11:49PM 33.6000 -96.6720 196° South 491 565 32,000  Level FlightAware
11:50PM 33.5120 -96.7010 195° South 494 568 32,000  Level FlightAware
11:50PM 33.4214 -96.7307 195° South 494 568 32,000  Level FlightAware ADS-B
11:51PM 33.3523 -96.7535 195° South 492 566 32,000  Level FlightAware ADS-B
11:51PM 33.2790 -96.7776 195° South 492 566 32,000  Level FlightAware ADS-B
11:52PM 33.2097 -96.8003 195° South 492 566 32,000  Level FlightAware ADS-B
11:52PM 33.1355 -96.8243 195° South 494 568 32,000  Level FlightAware ADS-B
11:53PM 33.0681 -96.8462 195° South 497 572 32,000  Level FlightAware ADS-B
11:54PM 32.9584 -96.8820 195° South 497 572 32,000  Level FlightAware ADS-B
11:54PM 32.8573 -96.8925 185° South 498 573 32,000  Level FlightAware ADS-B
11:55PM 32.8381 -96.8890 171° South 513 590 32,000  Level FlightAware ADS-B
11:55PM 32.7473 -96.8629 166° South 513 590 32,000  Level FlightAware ADS-B
11:56PM 32.6759 -96.8422 166° South 512 589 32,000  Level FlightAware ADS-B
11:56PM 32.5995 -96.8201 166° South 510 587 32,000  Level FlightAware ADS-B
11:57PM 32.4756 -96.7846 166° South 508 585 32,000 -60 Level FlightAware ADS-B
11:58PM 32.3632 -96.7527 167° South 509 586 31,900 -480 Descending FlightAware ADS-B
11:59PM 32.2357 -96.7164 166° South 493 567 31,200 -780 Descending FlightAware ADS-B
12:00AM 32.0955 -96.6767 167° South 455 524 30,300 -900 Descending FlightAware ADS-B
12:01AM 32.0338 -96.6593 167° South 447 514 29,800 -1,020 Descending FlightAware ADS-B
12:01AM 31.9360 -96.6314 166° South 440 506 29,000 -600 Descending FlightAware ADS-B
12:02AM 31.8741 -96.6140 167° South 435 501 29,000  Level FlightAware ADS-B
12:03AM 31.7390 -96.5760 167° South 439 505 29,000  Level FlightAware
12:04AM 31.6458 -96.5499 167° South 440 506 29,000 -60 Level FlightAware ADS-B
12:05AM 31.5254 -96.5151 166° South 440 506 28,900 -600 Descending FlightAware ADS-B
12:06AM 31.3959 -96.4674 161° South 431 496 27,800 -1,200 Descending FlightAware ADS-B
12:06AM 31.3451 -96.4431 158° South 429 494 27,000 -1,740 Descending FlightAware ADS-B
12:07AM 31.2895 -96.4115 154° Southeast 424 488 26,100 -2,040 Descending FlightAware ADS-B
12:08AM 31.1820 -96.3504 154° Southeast 419 482 23,900 -1,920 Descending FlightAware ADS-B
12:09AM 31.1297 -96.3206 154° Southeast 411 473 23,200 -1,620 Descending FlightAware ADS-B
12:09AM 31.0782 -96.2915 154° Southeast 407 468 22,300 -1,920 Descending FlightAware ADS-B
12:11AM 30.8784 -96.1784 154° Southeast 383 441 18,400 -1,980 Descending FlightAware ADS-B
12:12AM 30.7989 -96.1335 154° Southeast 375 432 16,700 -1,740 Descending FlightAware ADS-B
12:14AM 30.6164 -96.0307 154° Southeast 352 405 13,500 -1,620 Descending FlightAware ADS-B
12:14AM 30.5724 -96.0062 154° Southeast 345 397 12,700 -1,620 Descending FlightAware ADS-B
12:15AM 30.5291 -95.9822 154° Southeast 340 391 11,900 -1,560 Descending FlightAware ADS-B
12:16AM 30.4447 -95.9346 154° Southeast 325 374 10,400 -1,080 Descending FlightAware ADS-B
12:17AM 30.3820 -95.8998 154° Southeast 291 335 10,000 -660 Descending FlightAware ADS-B
12:17AM 30.3638 -95.8896 154° Southeast 289 333 9,700 -1,200 Descending FlightAware ADS-B
12:18AM 30.2742 -95.8396 154° Southeast 279 321 8,200 -1,200 Descending FlightAware ADS-B
12:19AM 30.2216 -95.8104 154° Southeast 274 315 7,300 -1,200 Descending FlightAware ADS-B
12:20AM 30.1691 -95.7812 154° Southeast 270 311 6,400 -1,200 Descending FlightAware ADS-B
12:20AM 30.1512 -95.7711 154° Southeast 268 308 6,100 -1,200 Descending FlightAware ADS-B
12:21AM 30.1173 -95.7524 154° Southeast 264 304 5,500 -1,200 Descending FlightAware ADS-B
12:21AM 30.1007 -95.7432 154° Southeast 259 298 5,200 -1,140 Descending FlightAware ADS-B
12:21AM 30.0818 -95.7328 155° Southeast 251 289 4,900 -1,020 Descending FlightAware ADS-B
12:21AM 30.0694 -95.7259 154° Southeast 244 281 4,700 -1,020 Descending FlightAware ADS-B
12:22AM 30.0505 -95.7154 154° Southeast 235 270 4,400 -900 Descending FlightAware ADS-B
12:22AM 30.0361 -95.7074 154° Southeast 228 262 4,200 -600 Descending FlightAware ADS-B
12:22AM 30.0213 -95.6992 154° Southeast 221 254 4,100 -480 Descending FlightAware ADS-B
12:22AM 30.0133 -95.6946 154° Southeast 214 246 4,000 -540 Descending FlightAware ADS-B
12:22AM 30.0103 -95.6926 150° Southeast 213 245 4,000  Level FlightAware ADS-B
12:22AM 30.0076 -95.6903 144° Southeast 212 244 4,000  Level FlightAware ADS-B
12:22AM 30.0044 -95.6869 137° Southeast 211 243 4,000 -720 Level FlightAware ADS-B
12:23AM 30.0015 -95.6831 131° Southeast 209 241 3,900 -720 Descending FlightAware ADS-B
12:23AM 29.9990 -95.6790 125° Southeast 209 241 3,900  Level FlightAware ADS-B
12:23AM 29.9971 -95.6752 120° Southeast 208 239 3,900  Level FlightAware ADS-B
12:23AM 29.9947 -95.6682 112° Southeast 208 239 3,900 -420 Level FlightAware ADS-B
12:23AM 29.9930 -95.6594 103° East 205 236 3,800 -420 Descending FlightAware ADS-B
12:23AM 29.9929 -95.6358 90° East 201 231 3,700 -360 Descending FlightAware ADS-B
12:24AM 29.9929 -95.6197 90° East 192 221 3,600 -420 Descending FlightAware ADS-B
12:24AM 29.9929 -95.6064 90° East 187 215 3,500 -420 Descending FlightAware ADS-B
12:25AM 29.9931 -95.5567 90° East 187 215 3,200 -360 Descending FlightAware ADS-B